Roxana, Louisiana
Current Conditions -  °F | °C
As of 12:53 PM on Thursday 23 Oct 2014 (Local Time) from KAEX Reporting Station
Clear Clear  
Wind Chill: 67°   Ceiling: Unl
Heat Index: 67°   Visibility: 10mi
Dew Point: 49°   Wind: 5mph
Humidity: 52%   Direction: NA
Pressure: 30.13"   Gusts: NA
Location:  31.2912°N, 92.5491°W
Report Text: KAEX 231753Z VRB04KT 10SM CLR 19/09 A3013 RMK AO2 SLP206 T01940094 10200 20094 58006
Loading
Personal Weather Stations






























Interactive Weather Map
Tropical Storm Tracking
New forecast layout! Learn more

10-Day Weather Forecast

Advertisements
Track Severe Weather on mobile